createdAt,value
2023-01-19T00:01:26.182Z,99954.94
2023-01-19T00:03:54.016Z,99964.34
2023-01-19T00:06:22.449Z,99959.66
2023-01-19T00:08:51.191Z,99959.66
2023-01-19T00:11:19.421Z,99953.63
2023-01-19T00:13:50.502Z,99958.06
2023-01-19T00:16:19.233Z,99952.84
2023-01-19T00:18:50.382Z,99948.69
2023-01-19T00:21:18.630Z,99939.78
2023-01-19T00:23:48.386Z,99953.38
2023-01-19T00:26:17.294Z,99946.09
2023-01-19T00:28:45.346Z,99969.09
2023-01-19T00:31:13.403Z,99966.72
2023-01-19T00:33:41.212Z,99959.66
2023-01-19T00:36:11.433Z,99967.72
2023-01-19T00:38:39.788Z,99964.53
2023-01-19T00:41:07.942Z,99967.88
2023-01-19T00:43:35.773Z,99961.09
2023-01-19T00:46:03.616Z,99969.94
2023-01-19T00:48:31.465Z,99947.50
2023-01-19T00:51:00.052Z,99967.31
2023-01-19T00:53:32.405Z,99957.94
2023-01-19T00:56:00.212Z,99954.03
2023-01-19T00:58:28.045Z,99958.50
2023-01-19T01:00:57.761Z,99955.41
2023-01-19T01:03:28.134Z,99958.56
2023-01-19T01:05:56.117Z,99952.03
2023-01-19T01:08:23.928Z,99948.91
2023-01-19T01:10:53.574Z,99944.47
2023-01-19T01:13:22.440Z,99944.47
2023-01-19T01:15:53.059Z,99940.53
2023-01-19T01:18:21.666Z,99949.94
2023-01-19T01:20:49.720Z,99950.41
2023-01-19T01:23:22.822Z,99947.53
2023-01-19T01:25:50.811Z,99949.06
2023-01-19T01:28:19.973Z,99952.94
2023-01-19T01:30:47.750Z,99954.72
2023-01-19T01:33:15.762Z,99951.25
2023-01-19T01:36:03.541Z,99957.75
2023-01-19T01:38:31.322Z,99957.00
2023-01-19T01:40:59.159Z,99953.59
2023-01-19T01:43:44.764Z,99958.56
2023-01-19T01:46:15.487Z,99959.34
2023-01-19T01:48:47.625Z,99958.06
2023-01-19T01:51:27.424Z,99967.22
2023-01-19T01:54:02.413Z,99971.97
2023-01-19T01:56:35.349Z,99977.44
2023-01-19T01:59:07.694Z,99956.31
2023-01-19T02:01:54.466Z,99956.63
2023-01-19T02:04:24.773Z,99959.50
2023-01-19T02:07:09.936Z,99967.88
2023-01-19T02:09:55.788Z,99963.72
2023-01-19T02:12:42.126Z,99976.03
2023-01-19T02:15:20.151Z,99980.75
2023-01-19T02:17:48.510Z,99971.09
2023-01-19T02:20:17.299Z,99978.41
2023-01-19T02:22:50.367Z,99973.72
2023-01-19T02:25:21.117Z,99975.31
2023-01-19T02:27:50.132Z,99971.41
2023-01-19T02:30:19.037Z,99966.47
2023-01-19T02:32:47.039Z,99973.81
2023-01-19T02:35:15.031Z,99979.31
2023-01-19T02:37:44.079Z,99991.91
2023-01-19T02:40:14.260Z,100001.31
2023-01-19T02:42:45.419Z,99995.91
2023-01-19T02:45:15.938Z,100000.09
2023-01-19T02:47:46.914Z,100003.00
2023-01-19T02:50:41.815Z,100004.34
2023-01-19T02:53:39.510Z,100004.06
2023-01-19T02:56:34.792Z,100007.47
2023-01-19T02:59:10.122Z,100010.09
2023-01-19T03:01:46.160Z,100021.06
2023-01-19T03:04:23.762Z,100027.84
2023-01-19T03:06:56.763Z,100027.09
2023-01-19T03:09:32.348Z,100039.91
2023-01-19T03:12:06.143Z,100031.00
2023-01-19T03:14:41.241Z,100037.03
2023-01-19T03:17:12.509Z,100043.84
2023-01-19T03:19:42.936Z,100031.56
2023-01-19T03:22:15.917Z,100029.72
2023-01-19T03:24:47.051Z,100024.47
2023-01-19T03:27:18.494Z,100030.50
2023-01-19T03:29:51.910Z,100035.72
2023-01-19T03:32:23.275Z,100027.66
2023-01-19T03:34:52.949Z,100041.25
2023-01-19T03:37:22.523Z,100053.25
2023-01-19T03:39:50.916Z,100048.84
2023-01-19T03:42:19.416Z,100038.38
2023-01-19T03:44:50.576Z,100044.13
2023-01-19T03:47:20.384Z,100047.81
2023-01-19T03:49:50.744Z,100042.81
2023-01-19T03:52:18.500Z,100049.09
2023-01-19T03:54:46.327Z,100054.56
2023-01-19T03:57:14.083Z,100056.63
2023-01-19T03:59:41.872Z,100061.34
2023-01-19T04:02:11.100Z,100080.91
2023-01-19T04:04:38.946Z,100074.63
2023-01-19T04:07:06.914Z,100079.56
2023-01-19T04:09:34.711Z,100069.09
2023-01-19T04:12:03.753Z,100075.84
2023-01-19T04:14:31.612Z,100078.41
2023-01-19T04:16:59.466Z,100076.31
2023-01-19T04:19:28.619Z,100083.06
2023-01-19T04:21:56.939Z,100075.22
2023-01-19T04:24:24.703Z,100066.78
2023-01-19T04:26:53.386Z,100064.69
2023-01-19T04:29:21.194Z,100063.59
2023-01-19T04:31:48.987Z,100066.44
2023-01-19T04:34:16.993Z,100066.94
2023-01-19T04:36:46.912Z,100076.09
2023-01-19T04:39:14.847Z,100078.69
2023-01-19T04:41:42.657Z,100084.41
2023-01-19T04:44:10.533Z,100085.44
2023-01-19T04:46:38.359Z,100089.84
2023-01-19T04:49:06.263Z,100096.13
2023-01-19T04:51:34.300Z,100089.31
2023-01-19T04:54:03.952Z,100092.19
2023-01-19T04:56:32.077Z,100094.00
2023-01-19T04:58:59.827Z,100097.91
2023-01-19T05:01:28.064Z,100113.56
2023-01-19T05:03:55.941Z,100105.97
2023-01-19T05:06:23.728Z,100115.63
2023-01-19T05:08:51.684Z,100114.59
2023-01-19T05:11:20.975Z,100126.06
2023-01-19T05:13:50.258Z,100127.66
2023-01-19T05:16:18.873Z,100132.88
2023-01-19T05:18:46.707Z,100130.28
2023-01-19T05:21:14.549Z,100135.50
2023-01-19T05:23:42.421Z,100130.81
2023-01-19T05:26:10.507Z,100133.97
2023-01-19T05:28:39.711Z,100130.06
2023-01-19T05:31:07.896Z,100135.03
2023-01-19T05:33:35.712Z,100135.56
2023-01-19T05:36:04.325Z,100133.75
2023-01-19T05:38:35.924Z,100143.97
2023-01-19T05:41:04.145Z,100141.91
2023-01-19T05:43:32.014Z,100141.91
2023-01-19T05:46:01.171Z,100146.84
2023-01-19T05:48:28.928Z,100158.09
2023-01-19T05:50:59.773Z,100174.03
2023-01-19T05:53:27.557Z,100162.63
2023-01-19T05:56:00.983Z,100150.38
2023-01-19T05:58:28.855Z,100162.44
2023-01-19T06:00:56.778Z,100163.22
2023-01-19T06:03:25.993Z,100169.25
2023-01-19T06:05:53.898Z,100166.63
2023-01-19T06:08:21.621Z,100171.06
2023-01-19T06:10:49.382Z,100171.28
2023-01-19T06:13:17.418Z,100182.00
2023-01-19T06:15:45.319Z,100177.78
2023-01-19T06:18:14.747Z,100179.88
2023-01-19T06:20:43.952Z,100187.94
2023-01-19T06:23:11.722Z,100203.63
2023-01-19T06:25:39.614Z,100207.03
2023-01-19T06:28:07.431Z,100197.91
2023-01-19T06:30:35.267Z,100209.69
2023-01-19T06:33:03.263Z,100212.06
2023-01-19T06:35:31.152Z,100223.03
2023-01-19T06:38:00.330Z,100236.91
2023-01-19T06:40:28.193Z,100239.25
2023-01-19T06:42:55.993Z,100234.81
2023-01-19T06:45:23.776Z,100239.78
2023-01-19T06:47:51.556Z,100235.63
2023-01-19T06:50:19.607Z,100239.78
2023-01-19T06:52:50.904Z,100239.03
2023-01-19T06:55:20.569Z,100246.28
2023-01-19T06:57:50.011Z,100245.53
2023-01-19T07:00:19.089Z,100244.72
2023-01-19T07:02:46.876Z,100248.38
2023-01-19T07:05:14.707Z,100258.03
2023-01-19T07:07:44.782Z,100257.47
2023-01-19T07:10:15.630Z,100263.75
2023-01-19T07:12:46.473Z,100267.94
2023-01-19T07:15:15.199Z,100264.22
2023-01-19T07:17:43.117Z,100270.25
2023-01-19T07:20:13.076Z,100275.16
2023-01-19T07:22:41.374Z,100281.91
2023-01-19T07:25:10.272Z,100293.09
2023-01-19T07:27:38.042Z,100291.22
2023-01-19T07:30:08.786Z,100295.88
2023-01-19T07:32:36.935Z,100298.72
2023-01-19T07:35:05.198Z,100301.03
2023-01-19T07:37:32.971Z,100310.16
2023-01-19T07:40:01.417Z,100315.63
2023-01-19T07:42:29.095Z,100321.84
2023-01-19T07:44:57.085Z,100316.38
2023-01-19T07:47:26.262Z,100324.00
2023-01-19T07:49:54.122Z,100334.19
2023-01-19T07:52:22.905Z,100332.91
2023-01-19T07:54:51.673Z,100331.91
2023-01-19T07:57:20.589Z,100338.94
2023-01-19T07:59:48.388Z,100337.88
2023-01-19T08:02:17.284Z,100350.19
2023-01-19T08:04:49.103Z,100343.63
2023-01-19T08:07:16.968Z,100358.72
2023-01-19T08:09:45.272Z,100361.00
2023-01-19T08:12:13.111Z,100365.44
2023-01-19T08:14:40.919Z,100372.72
2023-01-19T08:17:08.678Z,100374.78
2023-01-19T08:19:36.457Z,100377.41
2023-01-19T08:22:06.108Z,100382.88
2023-01-19T08:24:33.865Z,100384.69
2023-01-19T08:27:03.566Z,100392.53
2023-01-19T08:29:31.942Z,100393.31
2023-01-19T08:32:02.236Z,100393.06
2023-01-19T08:34:32.010Z,100393.88
2023-01-19T08:37:00.282Z,100395.44
2023-01-19T08:39:29.413Z,100394.41
2023-01-19T08:41:58.111Z,100397.81
2023-01-19T08:44:25.943Z,100399.16
2023-01-19T08:46:54.238Z,100406.28
2023-01-19T08:49:22.058Z,100408.97
2023-01-19T08:51:49.869Z,100412.19
2023-01-19T08:54:18.772Z,100410.50
2023-01-19T08:56:47.989Z,100416.66
2023-01-19T08:59:16.888Z,100419.63
2023-01-19T09:01:44.890Z,100426.06
2023-01-19T09:04:12.808Z,100424.44
2023-01-19T09:06:40.715Z,100422.19
2023-01-19T09:09:08.492Z,100433.25
2023-01-19T09:11:36.347Z,100422.41
2023-01-19T09:14:05.997Z,100422.25
2023-01-19T09:16:34.424Z,100432.28
2023-01-19T09:19:02.187Z,100431.03
2023-01-19T09:21:30.095Z,100432.19
2023-01-19T09:23:57.958Z,100431.19
2023-01-19T09:26:26.160Z,100438.59
2023-01-19T09:28:53.956Z,100438.06
2023-01-19T09:31:23.689Z,100430.22
2023-01-19T09:33:51.516Z,100435.22
2023-01-19T09:36:19.331Z,100433.63
2023-01-19T09:38:47.150Z,100437.84
2023-01-19T09:41:21.391Z,100442.59
2023-01-19T09:43:53.988Z,100444.03
2023-01-19T09:46:30.773Z,100448.34
2023-01-19T09:49:04.664Z,100451.59
2023-01-19T09:51:37.181Z,100464.28
2023-01-19T09:54:12.360Z,100452.84
2023-01-19T09:56:40.320Z,100456.84
2023-01-19T09:59:20.611Z,100466.41
2023-01-19T10:02:18.773Z,100462.81
2023-01-19T10:04:55.269Z,100467.06
2023-01-19T10:07:34.662Z,100468.66
2023-01-19T10:10:20.741Z,100465.00
2023-01-19T10:13:11.034Z,100475.28
2023-01-19T10:15:52.289Z,100477.41
2023-01-19T10:18:25.638Z,100477.88
2023-01-19T10:20:57.729Z,100478.66
2023-01-19T10:23:40.804Z,100483.59
2023-01-19T10:26:13.942Z,100483.03
2023-01-19T10:28:42.287Z,100483.78
2023-01-19T10:31:10.260Z,100492.16
2023-01-19T10:33:39.674Z,100491.78
2023-01-19T10:36:17.829Z,100479.00
2023-01-19T10:38:46.157Z,100490.78
2023-01-19T10:41:15.874Z,100481.97
2023-01-19T10:43:45.700Z,100489.69
2023-01-19T10:46:21.565Z,100491.94
2023-01-19T10:48:52.471Z,100488.09
2023-01-19T10:51:20.617Z,100492.41
2023-01-19T10:53:58.139Z,100487.69
2023-01-19T10:56:28.628Z,100482.94
2023-01-19T10:58:56.448Z,100492.69
2023-01-19T11:01:26.187Z,100487.41
2023-01-19T11:03:57.124Z,100486.19
2023-01-19T11:06:28.029Z,100494.84
2023-01-19T11:09:16.606Z,100499.94
2023-01-19T11:11:47.223Z,100499.31
2023-01-19T11:14:20.180Z,100497.72
2023-01-19T11:16:52.078Z,100497.88
2023-01-19T11:19:32.372Z,100494.97
2023-01-19T11:22:27.587Z,100501.47
2023-01-19T11:24:58.295Z,100493.72
2023-01-19T11:27:27.514Z,100496.78
2023-01-19T11:30:09.785Z,100501.72
2023-01-19T11:32:37.938Z,100506.38
2023-01-19T11:35:33.443Z,100491.84
2023-01-19T11:38:19.081Z,100498.97
2023-01-19T11:40:54.773Z,100497.00
2023-01-19T11:43:24.475Z,100504.00
2023-01-19T11:45:52.890Z,100498.44
2023-01-19T11:48:28.009Z,100500.16
2023-01-19T11:51:01.552Z,100501.59
2023-01-19T11:53:33.903Z,100498.22
2023-01-19T11:56:05.763Z,100493.09
2023-01-19T11:58:37.868Z,100494.31
2023-01-19T12:01:12.879Z,100495.75
2023-01-19T12:03:42.710Z,100500.41
2023-01-19T12:06:16.327Z,100497.53
2023-01-19T12:08:48.084Z,100503.34
2023-01-19T12:11:21.561Z,100498.16
2023-01-19T12:13:50.652Z,100505.66
2023-01-19T12:16:21.868Z,100503.94
2023-01-19T12:18:56.195Z,100503.09
2023-01-19T12:21:25.438Z,100504.78
2023-01-19T12:24:02.257Z,100500.41
2023-01-19T12:26:35.457Z,100497.06
2023-01-19T12:29:08.775Z,100507.41
2023-01-19T12:31:36.725Z,100502.97
2023-01-19T12:34:32.388Z,100506.19
2023-01-19T12:37:07.224Z,100512.50
2023-01-19T12:39:36.254Z,100518.56
2023-01-19T12:42:14.317Z,100514.91
2023-01-19T12:44:43.625Z,100509.72
2023-01-19T12:47:24.307Z,100514.34
2023-01-19T12:49:56.578Z,100517.06
2023-01-19T12:52:34.741Z,100512.22
2023-01-19T12:55:16.736Z,100511.31
2023-01-19T12:57:49.214Z,100513.31
2023-01-19T13:00:36.928Z,100513.16
2023-01-19T13:03:26.639Z,100518.13
2023-01-19T13:05:56.715Z,100517.41
2023-01-19T13:09:00.578Z,100516.97
2023-01-19T13:11:33.324Z,100510.13
2023-01-19T13:14:34.762Z,100527.28
2023-01-19T13:17:27.556Z,100510.66
2023-01-19T13:20:14.254Z,100519.28
2023-01-19T13:23:09.519Z,100519.56
2023-01-19T13:25:38.955Z,100517.47
2023-01-19T13:28:12.070Z,100525.94
2023-01-19T13:30:54.007Z,100528.94
2023-01-19T13:33:25.148Z,100525.66
2023-01-19T13:35:55.359Z,100519.84
2023-01-19T13:38:24.791Z,100527.34
2023-01-19T13:40:55.961Z,100532.16
2023-01-19T13:43:29.360Z,100529.78
2023-01-19T13:45:57.602Z,100525.06
2023-01-19T13:48:26.212Z,100537.69
2023-01-19T13:50:59.720Z,100534.47
2023-01-19T13:53:27.711Z,100529.06
2023-01-19T13:56:23.278Z,100536.34
2023-01-19T13:59:09.929Z,100540.06
2023-01-19T14:01:40.757Z,100543.84
2023-01-19T14:04:25.812Z,100545.47
2023-01-19T14:06:55.730Z,100547.63
2023-01-19T14:09:23.744Z,100552.38
2023-01-19T14:12:09.552Z,100557.66
2023-01-19T14:14:37.551Z,100566.66
2023-01-19T14:17:05.922Z,100564.81
2023-01-19T14:19:49.179Z,100562.22
2023-01-19T14:22:17.033Z,100561.44
2023-01-19T14:24:44.865Z,100565.63
2023-01-19T14:27:24.216Z,100567.75
2023-01-19T14:29:54.691Z,100566.72
2023-01-19T14:32:24.114Z,100570.66
2023-01-19T14:35:12.470Z,100581.19
2023-01-19T14:37:48.437Z,100575.56
2023-01-19T14:40:19.472Z,100580.81
2023-01-19T14:42:52.671Z,100581.28
2023-01-19T14:45:23.169Z,100572.75
2023-01-19T14:47:57.464Z,100575.06
2023-01-19T14:50:27.793Z,100576.28
2023-01-19T14:52:58.351Z,100578.56
2023-01-19T14:55:33.050Z,100581.47
2023-01-19T14:58:02.245Z,100575.59
2023-01-19T15:00:30.442Z,100579.31
2023-01-19T15:02:58.081Z,100571.44
2023-01-19T15:05:25.969Z,100571.63
2023-01-19T15:07:54.128Z,100573.25
2023-01-19T15:10:24.598Z,100581.44
2023-01-19T15:12:54.298Z,100582.47
2023-01-19T15:15:33.391Z,100572.94
2023-01-19T15:18:03.842Z,100585.09
2023-01-19T15:20:31.792Z,100578.31
2023-01-19T15:22:59.583Z,100587.63
2023-01-19T15:25:27.350Z,100583.28
2023-01-19T15:27:59.587Z,100589.94
2023-01-19T15:30:31.014Z,100598.66
2023-01-19T15:32:59.222Z,100606.84
2023-01-19T15:35:27.250Z,100607.16
2023-01-19T15:37:55.069Z,100615.59
2023-01-19T15:40:23.340Z,100615.63
2023-01-19T15:42:51.951Z,100611.94
2023-01-19T15:45:34.628Z,100614.56
2023-01-19T15:48:04.011Z,100624.56
2023-01-19T15:50:32.490Z,100619.34
2023-01-19T15:53:00.782Z,100629.03
2023-01-19T15:55:29.299Z,100621.41
2023-01-19T15:58:01.328Z,100631.41
2023-01-19T16:00:32.251Z,100623.53
2023-01-19T16:03:01.800Z,100624.53
2023-01-19T16:05:41.847Z,100626.38
2023-01-19T16:08:11.073Z,100630.28
2023-01-19T16:10:38.997Z,100637.56
2023-01-19T16:13:06.821Z,100625.97
2023-01-19T16:15:37.105Z,100630.69
2023-01-19T16:18:05.831Z,100632.72
2023-01-19T16:20:33.760Z,100636.88
2023-01-19T16:23:16.802Z,100638.94
2023-01-19T16:25:45.486Z,100645.19
2023-01-19T16:28:28.689Z,100644.66
2023-01-19T16:30:58.073Z,100643.06
2023-01-19T16:33:25.990Z,100654.31
2023-01-19T16:35:54.230Z,100649.56
2023-01-19T16:38:23.288Z,100655.59
2023-01-19T16:40:51.145Z,100657.66
2023-01-19T16:43:19.264Z,100671.00
2023-01-19T16:46:02.718Z,100671.53
2023-01-19T16:48:32.218Z,100670.69
2023-01-19T16:51:02.085Z,100675.09
2023-01-19T16:53:30.783Z,100678.97
2023-01-19T16:55:58.899Z,100671.31
2023-01-19T16:58:26.722Z,100672.59
2023-01-19T17:00:54.601Z,100678.88
2023-01-19T17:03:23.910Z,100682.97
2023-01-19T17:05:52.301Z,100683.13
2023-01-19T17:08:20.396Z,100690.84
2023-01-19T17:10:48.501Z,100684.72
2023-01-19T17:13:16.375Z,100690.56
2023-01-19T17:15:44.303Z,100687.06
2023-01-19T17:18:12.115Z,100694.53
2023-01-19T17:20:41.293Z,100702.03
2023-01-19T17:23:09.093Z,100699.03
2023-01-19T17:25:36.881Z,100700.81
2023-01-19T17:28:04.861Z,100707.50
2023-01-19T17:30:32.743Z,100714.47
2023-01-19T17:33:00.638Z,100708.63
2023-01-19T17:35:28.429Z,100710.34
2023-01-19T17:37:58.365Z,100707.69
2023-01-19T17:40:26.667Z,100718.63
2023-01-19T17:42:54.429Z,100717.53
2023-01-19T17:45:22.272Z,100717.75
2023-01-19T17:47:50.683Z,100724.50
2023-01-19T17:50:18.889Z,100722.91
2023-01-19T17:52:46.783Z,100713.22
2023-01-19T17:55:16.509Z,100726.78
2023-01-19T17:57:44.342Z,100721.78
2023-01-19T18:00:13.522Z,100725.13
2023-01-19T18:02:41.626Z,100727.66
2023-01-19T18:05:12.608Z,100723.84
2023-01-19T18:07:40.721Z,100734.63
2023-01-19T18:10:10.915Z,100735.56
2023-01-19T18:12:40.075Z,100737.63
2023-01-19T18:15:09.644Z,100735.88
2023-01-19T18:17:37.534Z,100731.16
2023-01-19T18:20:06.055Z,100734.28
2023-01-19T18:22:33.708Z,100736.50
2023-01-19T18:25:01.709Z,100740.50
2023-01-19T18:27:30.292Z,100738.47
2023-01-19T18:29:59.268Z,100746.66
2023-01-19T18:32:27.325Z,100750.50
2023-01-19T18:34:55.245Z,100752.00
2023-01-19T18:37:23.043Z,100757.13
2023-01-19T18:39:50.902Z,100752.81
2023-01-19T18:42:18.743Z,100753.28
2023-01-19T18:44:46.522Z,100755.56
2023-01-19T18:47:15.685Z,100760.19
2023-01-19T18:49:43.495Z,100756.81
2023-01-19T18:52:11.382Z,100754.63
2023-01-19T18:54:39.238Z,100753.59
2023-01-19T18:57:07.023Z,100752.59
2023-01-19T18:59:35.004Z,100747.13
2023-01-19T19:02:05.162Z,100757.34
2023-01-19T19:04:34.505Z,100756.81
2023-01-19T19:07:02.314Z,100766.63
2023-01-19T19:09:30.230Z,100761.66
2023-01-19T19:11:58.094Z,100767.69
2023-01-19T19:14:25.906Z,100764.50
2023-01-19T19:16:53.705Z,100767.31
2023-01-19T19:19:21.538Z,100782.66
2023-01-19T19:21:52.122Z,100791.47
2023-01-19T19:24:19.914Z,100790.72
2023-01-19T19:26:47.697Z,100791.84
2023-01-19T19:29:15.554Z,100790.13
2023-01-19T19:31:43.431Z,100798.88
2023-01-19T19:34:12.410Z,100798.19
2023-01-19T19:36:41.962Z,100799.31
2023-01-19T19:39:11.262Z,100802.72
2023-01-19T19:41:39.035Z,100812.47
2023-01-19T19:44:06.925Z,100814.88
2023-01-19T19:46:34.735Z,100815.44
2023-01-19T19:49:02.555Z,100818.59
2023-01-19T19:51:30.443Z,100818.94
2023-01-19T19:54:00.268Z,100837.00
2023-01-19T19:56:30.918Z,100832.09
2023-01-19T19:59:00.760Z,100842.09
2023-01-19T20:01:33.546Z,100839.03
2023-01-19T20:04:06.997Z,100835.75
2023-01-19T20:06:38.595Z,100833.94
2023-01-19T20:09:07.443Z,100837.09
2023-01-19T20:11:37.149Z,100838.66
2023-01-19T20:14:06.503Z,100839.91
2023-01-19T20:16:34.363Z,100839.34
2023-01-19T20:19:02.893Z,100840.41
2023-01-19T20:21:32.058Z,100846.38
2023-01-19T20:24:02.168Z,100858.66
2023-01-19T20:26:32.060Z,100861.50
2023-01-19T20:29:06.112Z,100862.75
2023-01-19T20:31:36.600Z,100866.03
2023-01-19T20:34:07.060Z,100870.69
2023-01-19T20:36:35.234Z,100880.56
2023-01-19T20:39:08.443Z,100885.22
2023-01-19T20:41:43.129Z,100887.94
2023-01-19T20:44:13.109Z,100889.63
2023-01-19T20:46:41.145Z,100892.34
2023-01-19T20:49:10.152Z,100889.38
2023-01-19T20:51:43.069Z,100904.81
2023-01-19T20:54:11.186Z,100903.00
2023-01-19T20:56:41.257Z,100910.81
2023-01-19T20:59:09.408Z,100910.81
2023-01-19T21:01:39.193Z,100905.59
2023-01-19T21:04:07.258Z,100906.19
2023-01-19T21:06:35.646Z,100903.59
2023-01-19T21:09:04.106Z,100890.75
2023-01-19T21:11:32.136Z,100889.38
2023-01-19T21:14:00.008Z,100900.03
2023-01-19T21:16:30.056Z,100890.84
2023-01-19T21:18:59.568Z,100901.28
2023-01-19T21:21:31.913Z,100901.28
2023-01-19T21:24:01.083Z,100894.47
2023-01-19T21:26:30.679Z,100905.50
2023-01-19T21:28:58.756Z,100904.91
2023-01-19T21:31:27.978Z,100912.16
2023-01-19T21:34:03.973Z,100915.25
2023-01-19T21:36:31.841Z,100921.13
2023-01-19T21:39:01.236Z,100916.56
2023-01-19T21:41:30.903Z,100918.03
2023-01-19T21:43:59.925Z,100925.28
2023-01-19T21:46:29.358Z,100924.13
2023-01-19T21:48:57.884Z,100923.75
2023-01-19T21:51:27.253Z,100918.22
2023-01-19T21:53:59.376Z,100925.91
2023-01-19T21:56:28.087Z,100926.34
2023-01-19T21:58:56.870Z,100926.00
2023-01-19T22:01:25.131Z,100929.25
2023-01-19T22:03:55.001Z,100933.31
2023-01-19T22:06:23.819Z,100945.19
2023-01-19T22:08:53.273Z,100943.00
2023-01-19T22:11:22.255Z,100947.88
2023-01-19T22:13:50.047Z,100953.31
2023-01-19T22:16:19.785Z,100957.72
2023-01-19T22:18:52.810Z,100966.78
2023-01-19T22:21:22.777Z,100963.59
2023-01-19T22:23:51.569Z,100970.84
2023-01-19T22:26:20.751Z,100973.66
2023-01-19T22:28:49.242Z,100972.84
2023-01-19T22:31:18.878Z,100979.44
2023-01-19T22:33:48.982Z,100976.63
2023-01-19T22:36:19.430Z,100979.81
2023-01-19T22:38:51.109Z,100983.41
2023-01-19T22:41:22.107Z,100982.41
2023-01-19T22:43:50.628Z,100996.03
2023-01-19T22:46:20.037Z,100983.00
2023-01-19T22:48:48.260Z,100980.97
2023-01-19T22:51:17.203Z,100978.34
2023-01-19T22:53:44.998Z,100980.97
2023-01-19T22:56:15.126Z,100979.59
2023-01-19T22:58:45.258Z,100986.81
2023-01-19T23:01:14.709Z,100988.06
2023-01-19T23:03:42.929Z,100983.28
2023-01-19T23:06:12.649Z,100986.47
2023-01-19T23:08:41.599Z,100987.25
2023-01-19T23:11:11.174Z,100985.44
2023-01-19T23:13:39.597Z,100988.06
2023-01-19T23:16:10.140Z,100986.47
2023-01-19T23:18:38.220Z,100990.88
2023-01-19T23:21:07.261Z,100985.88
2023-01-19T23:23:35.767Z,100983.28
2023-01-19T23:26:04.652Z,100981.69
2023-01-19T23:28:34.093Z,100986.69
2023-01-19T23:31:02.260Z,100987.47
2023-01-19T23:33:31.468Z,100985.69
2023-01-19T23:35:59.318Z,100986.47
2023-01-19T23:38:27.137Z,100984.31
2023-01-19T23:40:57.921Z,100987.91
2023-01-19T23:43:25.684Z,100985.75
2023-01-19T23:45:53.504Z,100998.97
2023-01-19T23:48:21.321Z,100994.41
2023-01-19T23:50:50.495Z,100993.84
2023-01-19T23:53:18.229Z,100995.06
2023-01-19T23:55:46.048Z,100999.94
2023-01-19T23:58:13.886Z,100996.72
